createdAt,value
2019-04-21T00:01:52.542Z,7.33
2019-04-21T00:04:34.525Z,6.83
2019-04-21T00:07:13.197Z,7.47
2019-04-21T00:09:45.496Z,7.30
2019-04-21T00:12:15.284Z,6.97
2019-04-21T00:14:39.146Z,7.23
2019-04-21T00:17:06.140Z,6.43
2019-04-21T00:19:36.770Z,5.67
2019-04-21T00:22:14.930Z,6.77
2019-04-21T00:24:53.389Z,6.80
2019-04-21T00:27:24.484Z,6.77
2019-04-21T00:29:58.770Z,6.30
2019-04-21T00:32:22.196Z,6.93
2019-04-21T00:34:50.430Z,6.43
2019-04-21T00:37:22.072Z,5.50
2019-04-21T00:40:03.678Z,5.87
2019-04-21T00:42:34.242Z,5.50
2019-04-21T00:45:03.436Z,6.10
2019-04-21T00:47:34.448Z,5.50
2019-04-21T00:50:12.851Z,6.00
2019-04-21T00:53:00.845Z,6.83
2019-04-21T00:55:44.587Z,5.60
2019-04-21T00:58:19.489Z,5.60
2019-04-21T01:00:46.221Z,6.47
2019-04-21T01:03:14.661Z,5.20
2019-04-21T01:05:49.690Z,6.07
2019-04-21T01:08:14.565Z,5.93
2019-04-21T01:10:38.090Z,6.20
2019-04-21T01:13:23.593Z,6.33
2019-04-21T01:15:57.270Z,5.00
2019-04-21T01:18:20.726Z,5.80
2019-04-21T01:20:31.185Z,5.50
2019-04-21T01:23:00.636Z,5.80
2019-04-21T01:25:36.885Z,5.60
2019-04-21T01:28:18.849Z,5.93
2019-04-21T01:30:53.474Z,5.23
2019-04-21T01:33:26.058Z,5.80
2019-04-21T01:35:55.507Z,5.43
2019-04-21T01:38:32.315Z,6.40
2019-04-21T01:41:05.146Z,5.77
2019-04-21T01:43:31.522Z,5.57
2019-04-21T01:46:00.243Z,6.10
2019-04-21T01:48:24.630Z,6.10
2019-04-21T01:50:55.532Z,5.83
2019-04-21T01:53:51.592Z,5.37
2019-04-21T01:56:46.481Z,5.57
2019-04-21T01:59:03.452Z,5.67
2019-04-21T02:01:48.509Z,5.67
2019-04-21T02:04:23.967Z,5.10
2019-04-21T02:06:50.210Z,5.90
2019-04-21T02:09:23.199Z,5.40
2019-04-21T02:11:54.826Z,4.70
2019-04-21T02:14:31.131Z,5.63
2019-04-21T02:16:52.072Z,6.40
2019-04-21T02:19:23.430Z,6.00
2019-04-21T02:21:51.983Z,6.47
2019-04-21T02:24:34.930Z,6.70
2019-04-21T02:26:59.544Z,5.27
2019-04-21T02:29:33.053Z,6.13
2019-04-21T02:32:11.387Z,6.30
2019-04-21T02:35:06.525Z,6.03
2019-04-21T02:37:38.356Z,6.07
2019-04-21T02:39:48.914Z,5.50
2019-04-21T02:42:20.825Z,6.30
2019-04-21T02:44:52.217Z,5.77
2019-04-21T02:47:31.317Z,5.57
2019-04-21T02:57:26.906Z,5.40
2019-04-21T03:08:26.211Z,5.60
2019-04-21T03:10:54.121Z,5.87
2019-04-21T03:13:29.804Z,5.87
2019-04-21T03:15:59.795Z,6.20
2019-04-21T03:18:26.144Z,5.60
2019-04-21T03:21:00.962Z,5.97
2019-04-21T03:23:33.662Z,5.50
2019-04-21T03:26:03.047Z,5.33
2019-04-21T03:28:31.676Z,5.23
2019-04-21T03:31:32.102Z,6.73
2019-04-21T03:38:42.865Z,6.07
2019-04-21T03:41:05.158Z,6.20
2019-04-21T03:43:34.861Z,5.40
2019-04-21T03:46:23.250Z,5.80
2019-04-21T03:48:51.375Z,5.80
2019-04-21T03:51:13.827Z,5.37
2019-04-21T03:53:39.444Z,5.00
2019-04-21T03:56:16.046Z,5.43
2019-04-21T03:58:55.848Z,5.90
2019-04-21T04:04:30.785Z,5.77
2019-04-21T04:07:11.085Z,5.37
2019-04-21T04:09:52.413Z,6.10
2019-04-21T04:14:50.197Z,5.90
2019-04-21T04:17:18.621Z,6.40
2019-04-21T04:25:01.027Z,5.43
2019-04-21T04:27:46.767Z,6.47
2019-04-21T04:29:59.668Z,5.20
2019-04-21T04:32:28.772Z,5.47
2019-04-21T04:35:05.763Z,6.00
2019-04-21T04:37:32.602Z,5.63
2019-04-21T04:40:30.740Z,6.00
2019-04-21T04:45:38.464Z,5.40
2019-04-21T04:48:05.901Z,5.90
2019-04-21T04:50:50.106Z,5.27
2019-04-21T04:53:12.782Z,6.00
2019-04-21T04:58:25.087Z,5.33
2019-04-21T05:00:54.524Z,5.87
2019-04-21T05:03:18.930Z,6.10
2019-04-21T05:11:40.315Z,6.20
2019-04-21T05:16:46.885Z,6.83
2019-04-21T05:19:10.257Z,6.17
2019-04-21T05:21:34.696Z,6.00
2019-04-21T05:24:07.795Z,5.93
2019-04-21T05:26:23.074Z,5.43
2019-04-21T05:28:50.883Z,6.80
2019-04-21T05:32:09.183Z,6.77
2019-04-21T05:34:27.570Z,6.03
2019-04-21T05:37:14.195Z,7.10
2019-04-21T05:39:57.457Z,6.63
2019-04-21T05:42:30.474Z,5.63
2019-04-21T05:45:12.689Z,6.30
2019-04-21T05:47:52.006Z,5.87
2019-04-21T05:50:11.411Z,6.73
2019-04-21T05:52:53.688Z,5.80
2019-04-21T05:57:59.887Z,6.00
2019-04-21T06:00:55.316Z,5.87
2019-04-21T06:03:03.750Z,5.07
2019-04-21T06:08:09.871Z,5.33
2019-04-21T06:10:44.222Z,5.30
2019-04-21T06:13:13.656Z,5.80
2019-04-21T06:15:48.410Z,4.37
2019-04-21T06:18:21.460Z,5.30
2019-04-21T06:20:46.787Z,5.10
2019-04-21T06:23:20.330Z,5.33
2019-04-21T06:28:22.677Z,5.10
2019-04-21T06:31:00.499Z,4.90
2019-04-21T06:33:21.400Z,5.23
2019-04-21T06:36:31.467Z,5.10
2019-04-21T06:47:02.632Z,5.03
2019-04-21T06:51:43.550Z,4.57
2019-04-21T06:54:03.394Z,5.40
2019-04-21T06:56:40.935Z,5.10
2019-04-21T06:59:06.066Z,5.23
2019-04-21T07:01:47.058Z,5.27
2019-04-21T07:06:45.597Z,5.13
2019-04-21T07:09:20.480Z,4.70
2019-04-21T07:11:37.912Z,5.33
2019-04-21T07:14:25.902Z,4.50
2019-04-21T07:16:46.369Z,4.97
2019-04-21T07:19:27.825Z,4.70
2019-04-21T07:21:45.557Z,4.47
2019-04-21T07:24:21.873Z,4.70
2019-04-21T07:26:51.067Z,5.17
2019-04-21T07:29:25.037Z,4.00
2019-04-21T07:34:28.527Z,5.23
2019-04-21T07:36:56.162Z,4.47
2019-04-21T07:39:18.136Z,4.60
2019-04-21T07:41:49.610Z,4.50
2019-04-21T07:44:16.997Z,4.43
2019-04-21T07:46:45.201Z,4.90
2019-04-21T07:49:46.481Z,4.37
2019-04-21T07:52:34.897Z,4.63
2019-04-21T07:55:15.361Z,4.60
2019-04-21T07:57:39.088Z,4.83
2019-04-21T08:00:16.459Z,4.30
2019-04-21T08:02:35.097Z,5.10
2019-04-21T08:07:51.008Z,4.83
2019-04-21T08:10:06.144Z,4.70
2019-04-21T08:12:36.222Z,4.80
2019-04-21T08:15:18.116Z,4.80
2019-04-21T08:17:42.610Z,4.80
2019-04-21T08:20:11.378Z,4.00
2019-04-21T08:22:46.817Z,4.33
2019-04-21T08:25:15.144Z,5.10
2019-04-21T08:27:50.541Z,4.57
2019-04-21T08:30:21.510Z,4.20
2019-04-21T08:33:02.404Z,3.93
2019-04-21T08:37:50.870Z,4.33
2019-04-21T08:40:27.097Z,5.00
2019-04-21T08:42:52.139Z,4.80
2019-04-21T08:45:33.601Z,4.10
2019-04-21T08:48:12.124Z,4.97
2019-04-21T08:50:27.909Z,4.83
2019-04-21T08:55:39.695Z,4.40
2019-04-21T08:58:25.663Z,4.97
2019-04-21T09:01:01.080Z,4.37
2019-04-21T09:03:54.499Z,4.07
2019-04-21T09:06:23.553Z,4.03
2019-04-21T09:08:53.281Z,4.67
2019-04-21T09:11:16.317Z,4.33
2019-04-21T09:13:48.939Z,3.87
2019-04-21T09:16:22.242Z,3.90
2019-04-21T09:18:52.862Z,3.97
2019-04-21T09:21:28.481Z,3.43
2019-04-21T09:23:56.354Z,3.10
2019-04-21T09:26:29.545Z,3.70
2019-04-21T09:28:53.354Z,3.37
2019-04-21T09:31:17.967Z,3.60
2019-04-21T09:33:48.761Z,3.10
2019-04-21T09:36:20.132Z,4.10
2019-04-21T09:38:56.107Z,4.00
2019-04-21T09:41:22.884Z,3.20
2019-04-21T09:43:54.022Z,3.40
2019-04-21T09:46:23.200Z,3.30
2019-04-21T09:48:59.293Z,3.20
2019-04-21T09:51:23.834Z,3.20
2019-04-21T09:54:01.132Z,3.30
2019-04-21T09:56:37.370Z,3.10
2019-04-21T09:59:06.488Z,2.87
2019-04-21T10:01:36.757Z,3.20
2019-04-21T10:04:01.715Z,3.10
2019-04-21T10:06:29.037Z,3.77
2019-04-21T10:09:03.987Z,3.40
2019-04-21T10:11:31.046Z,3.00
2019-04-21T10:14:00.879Z,3.37
2019-04-21T10:16:45.154Z,3.60
2019-04-21T10:19:15.314Z,3.03
2019-04-21T10:21:44.811Z,3.47
2019-04-21T10:24:14.280Z,2.80
2019-04-21T10:26:45.086Z,3.03
2019-04-21T10:29:21.782Z,3.10
2019-04-21T10:31:46.849Z,3.40
2019-04-21T10:34:17.083Z,3.10
2019-04-21T10:36:47.056Z,3.50
2019-04-21T10:39:17.699Z,3.83
2019-04-21T10:41:47.687Z,3.13
2019-04-21T10:44:17.289Z,3.67
2019-04-21T10:46:48.953Z,3.37
2019-04-21T10:49:18.992Z,4.23
2019-04-21T10:51:48.904Z,4.00
2019-04-21T10:54:19.983Z,3.43
2019-04-21T10:56:50.702Z,3.90
2019-04-21T10:59:20.518Z,3.73
2019-04-21T11:01:50.448Z,4.20
2019-04-21T11:04:32.409Z,3.67
2019-04-21T11:07:04.318Z,3.27
2019-04-21T11:09:29.571Z,3.37
2019-04-21T11:11:59.932Z,3.70
2019-04-21T11:14:31.509Z,3.57
2019-04-21T11:17:01.100Z,3.30
2019-04-21T11:19:30.771Z,3.20
2019-04-21T11:22:01.052Z,3.27
2019-04-21T11:24:31.378Z,2.67
2019-04-21T11:27:01.832Z,3.03
2019-04-21T11:29:31.432Z,3.37
2019-04-21T11:32:10.598Z,3.90
2019-04-21T11:34:41.021Z,3.43
2019-04-21T11:37:14.330Z,3.90
2019-04-21T11:39:51.962Z,3.40
2019-04-21T11:42:27.920Z,3.50
2019-04-21T11:44:57.568Z,3.03
2019-04-21T11:47:32.291Z,3.63
2019-04-21T11:50:03.266Z,3.87
2019-04-21T11:52:32.901Z,3.50
2019-04-21T11:55:04.625Z,3.57
2019-04-21T11:57:38.308Z,3.70
2019-04-21T12:00:06.987Z,3.90
2019-04-21T12:02:37.391Z,3.20
2019-04-21T12:05:07.578Z,2.70
2019-04-21T12:07:37.609Z,3.10
2019-04-21T12:10:07.345Z,3.27
2019-04-21T12:12:39.247Z,3.23
2019-04-21T12:15:13.912Z,2.47
2019-04-21T12:17:43.979Z,3.93
2019-04-21T12:20:15.138Z,3.20
2019-04-21T12:22:45.329Z,3.00
2019-04-21T12:25:16.595Z,2.83
2019-04-21T12:27:46.051Z,2.93
2019-04-21T12:30:17.713Z,2.80
2019-04-21T12:33:18.246Z,3.10
2019-04-21T12:35:48.247Z,2.60
2019-04-21T12:38:30.197Z,3.07
2019-04-21T12:40:48.853Z,3.10
2019-04-21T12:43:18.779Z,3.00
2019-04-21T12:45:49.441Z,2.73
2019-04-21T12:48:20.095Z,3.00
2019-04-21T12:50:49.942Z,3.10
2019-04-21T12:53:19.445Z,2.97
2019-04-21T12:55:49.933Z,2.93
2019-04-21T12:58:19.540Z,2.70
2019-04-21T13:00:49.597Z,2.70
2019-04-21T13:03:21.793Z,2.80
2019-04-21T13:05:51.610Z,2.40
2019-04-21T13:08:21.775Z,2.60
2019-04-21T13:10:52.030Z,2.57
2019-04-21T13:13:22.068Z,2.43
2019-04-21T13:15:51.801Z,3.37
2019-04-21T13:18:22.572Z,2.63
2019-04-21T13:20:54.104Z,2.67
2019-04-21T13:23:24.905Z,2.10
2019-04-21T13:25:54.550Z,2.10
2019-04-21T13:28:24.934Z,1.93
2019-04-21T13:30:54.566Z,2.50
2019-04-21T13:33:25.127Z,2.30
2019-04-21T13:35:55.177Z,3.43
2019-04-21T13:38:34.613Z,2.20
2019-04-21T13:41:21.453Z,2.73
2019-04-21T13:43:41.354Z,2.43
2019-04-21T13:46:12.073Z,2.00
2019-04-21T13:48:42.510Z,2.70
2019-04-21T13:51:13.299Z,2.90
2019-04-21T13:53:43.920Z,2.73
2019-04-21T13:56:14.324Z,3.07
2019-04-21T13:58:46.321Z,2.67
2019-04-21T14:01:18.087Z,3.00
2019-04-21T14:03:47.641Z,3.20
2019-04-21T14:06:18.312Z,3.03
2019-04-21T14:08:49.171Z,2.83
2019-04-21T14:11:19.774Z,2.50
2019-04-21T14:13:50.433Z,2.63
2019-04-21T14:16:20.321Z,2.80
2019-04-21T14:18:49.926Z,2.80
2019-04-21T14:21:19.388Z,2.47
2019-04-21T14:23:51.255Z,2.23
2019-04-21T14:26:20.308Z,2.90
2019-04-21T14:28:51.243Z,2.90
2019-04-21T14:31:22.111Z,2.30
2019-04-21T14:33:54.176Z,2.73
2019-04-21T14:36:23.663Z,2.73
2019-04-21T14:38:54.424Z,2.93
2019-04-21T14:41:24.172Z,2.77
2019-04-21T14:43:55.046Z,2.60
2019-04-21T14:46:46.974Z,2.77
2019-04-21T14:49:41.650Z,3.27
2019-04-21T14:52:19.019Z,2.80
2019-04-21T14:54:54.536Z,2.67
2019-04-21T14:57:25.093Z,2.93
2019-04-21T14:59:55.135Z,2.60
2019-04-21T15:02:25.559Z,3.53
2019-04-21T15:04:57.690Z,2.90
2019-04-21T15:07:27.642Z,2.87
2019-04-21T15:10:04.793Z,2.67
2019-04-21T15:12:28.195Z,2.37
2019-04-21T15:14:58.151Z,3.00
2019-04-21T15:17:29.320Z,2.70
2019-04-21T15:20:04.609Z,3.00
2019-04-21T15:22:30.472Z,2.90
2019-04-21T15:25:00.650Z,3.00
2019-04-21T15:27:30.709Z,2.43
2019-04-21T15:30:00.616Z,3.20
2019-04-21T15:32:30.628Z,3.10
2019-04-21T15:35:00.396Z,2.73
2019-04-21T15:37:30.014Z,2.90
2019-04-21T15:40:11.311Z,3.07
2019-04-21T15:42:30.948Z,2.90
2019-04-21T15:45:00.928Z,3.07
2019-04-21T15:47:31.679Z,2.87
2019-04-21T15:50:07.406Z,3.10
2019-04-21T15:52:33.829Z,3.00
2019-04-21T15:55:08.540Z,2.87
2019-04-21T15:58:02.625Z,2.80
2019-04-21T16:00:40.489Z,3.27
2019-04-21T16:03:10.854Z,2.50
2019-04-21T16:05:40.656Z,2.83
2019-04-21T16:08:10.249Z,2.90
2019-04-21T16:10:47.101Z,2.57
2019-04-21T16:13:11.798Z,3.07
2019-04-21T16:15:41.644Z,3.20
2019-04-21T16:18:12.147Z,2.60
2019-04-21T16:20:42.053Z,2.93
2019-04-21T16:23:12.823Z,2.80
2019-04-21T16:25:42.470Z,3.20
2019-04-21T16:28:13.261Z,2.80
2019-04-21T16:30:44.680Z,3.03
2019-04-21T16:33:14.331Z,3.07
2019-04-21T16:35:45.317Z,2.77
2019-04-21T16:38:15.410Z,2.57
2019-04-21T16:40:53.678Z,2.30
2019-04-21T16:43:16.450Z,3.23
2019-04-21T16:45:46.570Z,2.90
2019-04-21T16:48:16.982Z,2.83
2019-04-21T16:50:47.778Z,2.87
2019-04-21T16:53:24.171Z,2.40
2019-04-21T16:56:08.963Z,2.80
2019-04-21T16:58:42.970Z,2.70
2019-04-21T17:01:18.197Z,2.97
2019-04-21T17:03:46.781Z,2.73
2019-04-21T17:06:17.358Z,3.00
2019-04-21T17:08:47.216Z,2.60
2019-04-21T17:11:20.689Z,3.07
2019-04-21T17:13:47.731Z,2.70
2019-04-21T17:16:42.089Z,2.67
2019-04-21T17:19:00.481Z,2.90
2019-04-21T17:21:19.612Z,2.63
2019-04-21T17:23:50.346Z,2.90
2019-04-21T17:26:21.295Z,2.70
2019-04-21T17:28:52.301Z,3.60
2019-04-21T17:31:22.360Z,2.60
2019-04-21T17:33:57.397Z,2.90
2019-04-21T17:36:23.187Z,2.57
2019-04-21T17:38:52.778Z,2.57
2019-04-21T17:41:30.603Z,2.63
2019-04-21T17:43:53.418Z,2.80
2019-04-21T17:46:33.539Z,2.40
2019-04-21T17:48:54.766Z,2.27
2019-04-21T17:51:54.604Z,2.40
2019-04-21T17:54:32.212Z,2.53
2019-04-21T17:57:19.464Z,2.13
2019-04-21T17:59:56.345Z,3.50
2019-04-21T18:02:23.503Z,2.43
2019-04-21T18:04:53.933Z,2.67
2019-04-21T18:07:29.951Z,2.50
2019-04-21T18:10:06.095Z,2.70
2019-04-21T18:12:33.796Z,2.10
2019-04-21T18:14:59.136Z,2.23
2019-04-21T18:17:20.436Z,2.83
2019-04-21T18:19:51.732Z,2.20
2019-04-21T18:22:51.331Z,2.40
2019-04-21T18:25:31.996Z,2.40
2019-04-21T18:27:54.467Z,2.80
2019-04-21T18:31:00.462Z,3.07
2019-04-21T18:33:35.525Z,2.70
2019-04-21T18:36:30.243Z,2.80
2019-04-21T18:39:29.938Z,2.40
2019-04-21T18:42:06.430Z,3.00
2019-04-21T18:45:25.498Z,3.07
2019-04-21T18:47:37.225Z,2.67
2019-04-21T18:49:52.535Z,2.47
2019-04-21T18:52:55.597Z,3.33
2019-04-21T18:55:18.976Z,2.40
2019-04-21T18:57:42.783Z,3.50
2019-04-21T19:00:17.888Z,4.30
2019-04-21T19:02:47.729Z,2.90
2019-04-21T19:05:17.174Z,2.80
2019-04-21T19:08:03.148Z,3.00
2019-04-21T19:10:37.564Z,2.83
2019-04-21T19:15:38.369Z,3.50
2019-04-21T19:20:39.343Z,3.10
2019-04-21T19:23:07.012Z,3.07
2019-04-21T19:25:45.125Z,2.43
2019-04-21T19:28:06.400Z,3.07
2019-04-21T19:30:50.163Z,2.90
2019-04-21T19:33:17.250Z,2.60
2019-04-21T19:35:31.781Z,3.43
2019-04-21T19:38:07.102Z,3.00
2019-04-21T19:40:48.990Z,2.93
2019-04-21T19:43:17.293Z,2.77
2019-04-21T19:45:48.578Z,4.10
2019-04-21T19:48:24.147Z,3.57
2019-04-21T19:50:57.146Z,3.43
2019-04-21T19:53:25.329Z,3.43
2019-04-21T19:55:40.483Z,3.50
2019-04-21T19:58:10.720Z,3.17
2019-04-21T20:00:40.416Z,3.23
2019-04-21T20:03:10.441Z,3.47
2019-04-21T20:05:47.585Z,4.03
2019-04-21T20:08:23.636Z,4.10
2019-04-21T20:11:00.899Z,4.20
2019-04-21T20:13:46.620Z,3.67
2019-04-21T20:16:03.306Z,3.20
2019-04-21T20:18:25.141Z,3.83
2019-04-21T20:20:48.102Z,3.40
2019-04-21T20:23:24.996Z,3.80
2019-04-21T20:25:54.672Z,3.43
2019-04-21T20:28:33.306Z,3.60
2019-04-21T20:31:06.786Z,3.60
2019-04-21T20:36:15.021Z,4.20
2019-04-21T20:38:35.833Z,3.97
2019-04-21T20:41:01.850Z,2.93
2019-04-21T20:43:48.451Z,3.63
2019-04-21T20:46:12.237Z,3.60
2019-04-21T20:48:42.126Z,3.60
2019-04-21T20:51:18.031Z,3.30
2019-04-21T20:53:46.477Z,3.73
2019-04-21T20:56:13.206Z,3.93
2019-04-21T20:58:53.821Z,3.53
2019-04-21T21:01:30.809Z,3.70
2019-04-21T21:03:50.123Z,4.20
2019-04-21T21:06:23.131Z,4.10
2019-04-21T21:08:56.885Z,4.37
2019-04-21T21:11:27.744Z,3.80
2019-04-21T21:14:01.595Z,4.33
2019-04-21T21:16:35.506Z,4.03
2019-04-21T21:19:28.571Z,3.97
2019-04-21T21:21:29.574Z,4.63
2019-04-21T21:24:05.168Z,4.00
2019-04-21T21:26:31.369Z,4.57
2019-04-21T21:28:57.475Z,3.83
2019-04-21T21:31:37.215Z,4.50
2019-04-21T21:34:13.207Z,4.80
2019-04-21T21:36:36.723Z,4.77
2019-04-21T21:39:05.979Z,5.27
2019-04-21T21:41:31.428Z,5.90
2019-04-21T21:44:02.765Z,4.23
2019-04-21T21:46:42.740Z,4.27
2019-04-21T21:49:07.610Z,4.67
2019-04-21T21:51:39.514Z,4.00
2019-04-21T21:53:59.025Z,4.00
2019-04-21T21:56:28.888Z,4.17
2019-04-21T21:59:01.224Z,4.40
2019-04-21T22:01:37.718Z,4.37
2019-04-21T22:04:09.326Z,4.63
2019-04-21T22:06:44.670Z,4.03
2019-04-21T22:09:04.084Z,4.00
2019-04-21T22:11:33.891Z,4.20
2019-04-21T22:14:08.061Z,4.10
2019-04-21T22:16:46.616Z,3.60
2019-04-21T22:19:25.726Z,4.90
2019-04-21T22:21:53.285Z,4.23
2019-04-21T22:24:23.684Z,4.50
2019-04-21T22:26:40.988Z,5.50
2019-04-21T22:29:11.738Z,4.80
2019-04-21T22:31:43.322Z,5.83
2019-04-21T22:34:15.799Z,7.00
2019-04-21T22:36:53.867Z,5.67
2019-04-21T22:39:37.555Z,5.87
2019-04-21T22:41:50.389Z,4.83
2019-04-21T22:44:18.820Z,5.00
2019-04-21T22:46:59.938Z,5.93
2019-04-21T22:49:20.562Z,4.97
2019-04-21T22:51:52.068Z,4.83
2019-04-21T22:54:29.626Z,4.47
2019-04-21T22:56:59.182Z,4.77
2019-04-21T22:59:26.317Z,4.40
2019-04-21T23:01:55.907Z,4.30
2019-04-21T23:04:36.840Z,4.40
2019-04-21T23:07:02.822Z,4.30
2019-04-21T23:09:29.042Z,4.30
2019-04-21T23:12:00.025Z,4.50
2019-04-21T23:14:33.874Z,4.47
2019-04-21T23:17:24.145Z,4.90
2019-04-21T23:19:46.278Z,4.33
2019-04-21T23:22:21.390Z,4.67
2019-04-21T23:24:54.507Z,4.80
2019-04-21T23:27:15.482Z,3.80
2019-04-21T23:30:00.530Z,4.10
2019-04-21T23:32:19.916Z,3.83
2019-04-21T23:34:40.747Z,5.10
2019-04-21T23:37:15.069Z,4.37
2019-04-21T23:39:41.592Z,4.30
2019-04-21T23:42:11.343Z,3.60
2019-04-21T23:44:47.037Z,3.70
2019-04-21T23:47:27.322Z,4.37
2019-04-21T23:49:53.111Z,4.13
2019-04-21T23:52:16.131Z,4.23
2019-04-21T23:54:45.418Z,3.70
2019-04-21T23:57:20.834Z,3.70
2019-04-21T23:59:51.286Z,3.50
